Time;durP1;ratioP1;P1;durP2;ratioP2;P2;SDS_P1;SDS_P2;PMS_P1;PMS_P2;Temp;Humidity;BMP_temperature;BMP_pressure;BME280_temperature;BME280_humidity;BME280_pressure;Samples;Min_cycle;Max_cycle;Signal;HPM_P1;HPM_P2
2023/05/06 00:00:25;;;;;;;21.35;10.77;;;;;;;;;;5036724;28;20155;-80
2023/05/06 00:02:51;;;;;;;22.02;11.23;;;;;;;;;;5035112;28;20056;-80
2023/05/06 00:05:17;;;;;;;19.30;10.40;;;;;;;;;;5016479;28;20067;-79
2023/05/06 00:07:44;;;;;;;19.10;10.43;;;;;;;;;;5032769;28;20017;-80
2023/05/06 00:10:10;;;;;;;21.60;11.05;;;;;;;;;;5016855;28;20021;-80
2023/05/06 00:12:35;;;;;;;19.85;10.35;;;;;;;;;;5033799;28;20593;-80
2023/05/06 00:15:01;;;;;;;21.00;10.88;;;;;;;;;;5033703;28;20030;-80
2023/05/06 00:17:26;;;;;;;18.77;9.55;;;;;;;;;;5016655;28;20083;-81
2023/05/06 00:19:52;;;;;;;24.10;11.30;;;;;;;;;;5034082;28;20078;-79
2023/05/06 00:22:17;;;;;;;24.75;11.38;;;;;;;;;;5016256;28;20025;-80
2023/05/06 00:24:42;;;;;;;26.38;11.35;;;;;;;;;;5000015;28;20029;-80
2023/05/06 00:27:08;;;;;;;24.20;11.75;;;;;;;;;;5016269;28;20032;-79
2023/05/06 00:29:33;;;;;;;26.50;10.85;;;;;;;;;;5016266;28;20104;-80
2023/05/06 00:31:59;;;;;;;18.83;9.60;;;;;;;;;;5033331;28;20037;-80
2023/05/06 00:34:25;;;;;;;22.90;10.65;;;;;;;;;;5016482;28;20021;-80
2023/05/06 00:36:50;;;;;;;25.13;11.30;;;;;;;;;;5016156;28;20128;-80
2023/05/06 00:39:16;;;;;;;21.33;10.45;;;;;;;;;;5033767;28;20104;-81
2023/05/06 00:41:41;;;;;;;28.00;10.18;;;;;;;;;;5015925;28;20046;-79
2023/05/06 00:44:07;;;;;;;21.95;10.70;;;;;;;;;;4999940;28;20033;-80
2023/05/06 00:46:32;;;;;;;21.30;10.43;;;;;;;;;;4999649;28;20026;-80
2023/05/06 00:48:58;;;;;;;21.58;10.60;;;;;;;;;;4999757;28;20037;-80
2023/05/06 00:51:23;;;;;;;28.45;11.32;;;;;;;;;;5015951;28;20037;-80
2023/05/06 00:53:48;;;;;;;20.38;10.18;;;;;;;;;;5033448;28;20131;-80
2023/05/06 00:56:16;;;;;;;23.83;11.35;;;;;;;;;;5015969;28;20037;-79
2023/05/06 00:58:42;;;;;;;23.38;11.55;;;;;;;;;;5016225;28;20021;-79
2023/05/06 01:01:07;;;;;;;22.67;10.70;;;;;;;;;;5000001;28;20028;-80
2023/05/06 01:03:33;;;;;;;23.83;11.73;;;;;;;;;;5015876;28;20045;-80
2023/05/06 01:06:07;;;;;;;23.40;11.38;;;;;;;;;;5008416;28;20084;-80
2023/05/06 01:08:59;;;;;;;23.42;11.65;;;;;;;;;;5019550;28;20371;-79
2023/05/06 01:11:34;;;;;;;24.75;10.93;;;;;;;;;;5035510;28;20033;-79
2023/05/06 01:14:28;;;;;;;24.33;11.63;;;;;;;;;;5035191;28;20036;-79
2023/05/06 01:16:54;;;;;;;23.77;10.95;;;;;;;;;;5008379;28;20040;-80
2023/05/06 01:19:40;;;;;;;24.67;11.25;;;;;;;;;;5019577;28;20378;-79
2023/05/06 01:22:07;;;;;;;27.45;12.02;;;;;;;;;;5036363;28;20029;-80
2023/05/06 01:24:42;;;;;;;21.35;11.23;;;;;;;;;;5036439;28;20048;-80
2023/05/06 01:27:09;;;;;;;26.42;11.18;;;;;;;;;;5039581;28;20021;-80
2023/05/06 01:29:35;;;;;;;24.13;10.88;;;;;;;;;;5039140;28;20025;-80
2023/05/06 01:32:24;;;;;;;31.15;12.02;;;;;;;;;;5022979;28;20025;-80
2023/05/06 01:35:09;;;;;;;25.33;11.38;;;;;;;;;;5020566;28;20442;-79
2023/05/06 01:38:16;;;;;;;27.42;10.93;;;;;;;;;;5041708;28;20410;-80
2023/05/06 01:40:42;;;;;;;25.35;11.00;;;;;;;;;;5019563;28;20048;-80
2023/05/06 01:43:07;;;;;;;29.80;11.50;;;;;;;;;;5022968;28;20028;-80
2023/05/06 01:45:33;;;;;;;27.23;12.27;;;;;;;;;;5022498;28;20052;-80
2023/05/06 01:47:59;;;;;;;28.77;12.05;;;;;;;;;;5039118;28;20029;-80
2023/05/06 01:50:24;;;;;;;27.27;12.57;;;;;;;;;;5006092;28;20040;-80
2023/05/06 01:53:00;;;;;;;28.52;12.88;;;;;;;;;;5022455;28;20040;-80
2023/05/06 01:55:26;;;;;;;30.90;12.30;;;;;;;;;;5022308;28;20549;-80
2023/05/06 01:57:58;;;;;;;28.95;12.88;;;;;;;;;;5039079;28;20119;-80
2023/05/06 02:00:25;;;;;;;27.13;12.38;;;;;;;;;;5056582;28;20032;-81
2023/05/06 02:02:50;;;;;;;32.65;12.73;;;;;;;;;;5056531;28;20086;-81
2023/05/06 02:05:16;;;;;;;29.92;12.13;;;;;;;;;;5038405;28;20115;-79
2023/05/06 02:07:41;;;;;;;27.35;12.52;;;;;;;;;;5036360;28;20021;-81
2023/05/06 02:10:07;;;;;;;25.50;11.65;;;;;;;;;;5056200;28;20029;-80
2023/05/06 02:12:33;;;;;;;25.52;11.55;;;;;;;;;;5056288;28;20025;-80
2023/05/06 02:14:58;;;;;;;22.63;11.25;;;;;;;;;;5056355;28;20111;-80
2023/05/06 02:17:24;;;;;;;24.25;10.75;;;;;;;;;;5056331;28;20111;-81
2023/05/06 02:19:49;;;;;;;27.83;11.38;;;;;;;;;;5038534;28;20040;-80
2023/05/06 02:22:15;;;;;;;26.27;11.60;;;;;;;;;;5038670;28;20032;-80
2023/05/06 02:24:40;;;;;;;24.98;11.15;;;;;;;;;;5056062;28;20370;-81
2023/05/06 02:27:05;;;;;;;28.10;11.95;;;;;;;;;;5038194;28;20064;-81
2023/05/06 02:29:31;;;;;;;30.25;12.15;;;;;;;;;;5055949;28;20029;-80
2023/05/06 02:31:56;;;;;;;26.13;12.13;;;;;;;;;;5038420;28;20086;-80
2023/05/06 02:34:22;;;;;;;24.88;11.88;;;;;;;;;;5021251;28;20036;-81
2023/05/06 02:36:47;;;;;;;31.73;12.45;;;;;;;;;;5020953;28;20043;-80
2023/05/06 02:39:12;;;;;;;27.45;12.25;;;;;;;;;;5055782;28;20029;-80
2023/05/06 02:41:38;;;;;;;27.60;11.55;;;;;;;;;;5055758;28;20021;-80
2023/05/06 02:44:04;;;;;;;36.17;14.10;;;;;;;;;;5055677;28;20021;-81
2023/05/06 02:46:29;;;;;;;31.00;13.48;;;;;;;;;;5038177;28;20458;-79
2023/05/06 02:48:54;;;;;;;31.98;13.60;;;;;;;;;;5021259;28;20025;-80
2023/05/06 02:51:20;;;;;;;33.70;14.90;;;;;;;;;;5055914;28;20032;-80
2023/05/06 02:53:45;;;;;;;35.70;15.10;;;;;;;;;;5037690;28;20032;-80
2023/05/06 02:56:11;;;;;;;37.95;15.50;;;;;;;;;;5037697;28;20040;-81
2023/05/06 02:58:36;;;;;;;33.85;14.60;;;;;;;;;;5055571;28;20033;-81
2023/05/06 03:01:01;;;;;;;36.70;15.10;;;;;;;;;;5055383;28;20052;-82
2023/05/06 03:03:27;;;;;;;33.42;14.23;;;;;;;;;;5053638;28;20538;-82
2023/05/06 03:05:52;;;;;;;37.38;15.68;;;;;;;;;;5055351;28;20427;-81
2023/05/06 03:08:18;;;;;;;42.13;16.58;;;;;;;;;;5071074;28;20029;-81
2023/05/06 03:10:43;;;;;;;34.38;15.18;;;;;;;;;;5019832;28;20071;-81
2023/05/06 03:13:09;;;;;;;43.92;16.25;;;;;;;;;;5037397;28;20044;-81
2023/05/06 03:15:34;;;;;;;37.40;15.43;;;;;;;;;;5037054;28;20041;-81
2023/05/06 03:17:59;;;;;;;35.72;15.35;;;;;;;;;;5055146;28;20125;-81
2023/05/06 03:20:27;;;;;;;34.92;15.82;;;;;;;;;;5055064;28;20056;-81
2023/05/06 03:22:53;;;;;;;35.92;15.75;;;;;;;;;;5037087;28;20391;-81
2023/05/06 03:25:18;;;;;;;39.35;16.55;;;;;;;;;;5020739;28;20056;-82
2023/05/06 03:27:44;;;;;;;37.30;15.07;;;;;;;;;;5020640;28;20409;-82
2023/05/06 03:30:09;;;;;;;41.35;16.73;;;;;;;;;;5054599;28;20083;-82
2023/05/06 03:32:36;;;;;;;39.05;16.75;;;;;;;;;;5020736;28;20040;-81
2023/05/06 03:35:01;;;;;;;36.55;16.58;;;;;;;;;;5037064;28;20029;-81
2023/05/06 03:37:29;;;;;;;44.85;16.63;;;;;;;;;;5054657;28;20035;-81
2023/05/06 03:39:54;;;;;;;38.50;16.27;;;;;;;;;;5004534;28;20041;-81
2023/05/06 03:42:20;;;;;;;43.70;16.23;;;;;;;;;;5004203;28;20417;-81
2023/05/06 03:44:45;;;;;;;50.05;17.67;;;;;;;;;;5036688;28;20031;-81
2023/05/06 03:47:11;;;;;;;37.25;16.73;;;;;;;;;;5020436;28;20095;-81
2023/05/06 03:49:36;;;;;;;37.58;16.20;;;;;;;;;;5035776;28;20025;-81
2023/05/06 03:52:02;;;;;;;40.88;16.95;;;;;;;;;;5054763;28;20029;-80
2023/05/06 03:54:27;;;;;;;42.30;16.85;;;;;;;;;;5036562;28;20378;-82
2023/05/06 03:56:52;;;;;;;40.78;17.70;;;;;;;;;;5036612;28;20446;-81
2023/05/06 03:59:18;;;;;;;41.63;17.02;;;;;;;;;;5020002;28;20036;-81
2023/05/06 04:01:43;;;;;;;38.45;16.17;;;;;;;;;;5036452;28;20131;-82
2023/05/06 04:04:09;;;;;;;45.47;19.05;;;;;;;;;;5036746;28;20124;-81
2023/05/06 04:06:34;;;;;;;42.28;16.63;;;;;;;;;;5020215;28;20025;-81
2023/05/06 04:08:59;;;;;;;38.83;16.85;;;;;;;;;;5020183;28;20044;-80
2023/05/06 04:11:25;;;;;;;42.55;16.17;;;;;;;;;;5034592;28;20029;-80
2023/05/06 04:13:51;;;;;;;38.85;16.10;;;;;;;;;;5035880;28;20106;-82
2023/05/06 04:16:16;;;;;;;38.10;16.25;;;;;;;;;;5053965;28;20144;-81
2023/05/06 04:18:42;;;;;;;39.78;15.98;;;;;;;;;;5053964;28;20021;-80
2023/05/06 04:21:10;;;;;;;37.35;15.02;;;;;;;;;;5019771;28;20036;-82
2023/05/06 04:23:36;;;;;;;35.05;14.10;;;;;;;;;;5020345;28;20036;-81
2023/05/06 04:26:02;;;;;;;40.10;15.63;;;;;;;;;;5019645;28;20033;-80
2023/05/06 04:28:27;;;;;;;36.63;15.25;;;;;;;;;;5035734;28;20427;-80
2023/05/06 04:30:53;;;;;;;41.95;16.35;;;;;;;;;;5036104;28;20071;-81
2023/05/06 04:33:18;;;;;;;37.15;16.52;;;;;;;;;;5036053;28;20057;-81
2023/05/06 04:35:53;;;;;;;42.42;17.23;;;;;;;;;;5036021;28;20099;-80
2023/05/06 04:38:24;;;;;;;43.75;17.02;;;;;;;;;;5036302;28;20522;-81
2023/05/06 04:40:50;;;;;;;40.45;16.95;;;;;;;;;;5036291;28;20029;-81
2023/05/06 04:43:15;;;;;;;42.33;17.25;;;;;;;;;;5019012;28;20047;-81
2023/05/06 04:45:48;;;;;;;40.10;17.30;;;;;;;;;;5035815;28;20060;-81
2023/05/06 04:48:15;;;;;;;49.78;18.58;;;;;;;;;;5037186;28;20081;-81
2023/05/06 04:50:40;;;;;;;42.55;18.02;;;;;;;;;;5019823;28;20029;-81
2023/05/06 04:53:06;;;;;;;48.03;20.13;;;;;;;;;;5035694;28;20187;-81
2023/05/06 04:55:32;;;;;;;50.25;19.77;;;;;;;;;;5004118;28;20174;-80
2023/05/06 04:57:58;;;;;;;58.53;21.92;;;;;;;;;;5004130;28;20021;-81
2023/05/06 05:00:25;;;;;;;50.50;19.67;;;;;;;;;;5055694;28;20029;-82
2023/05/06 05:02:50;;;;;;;52.45;21.95;;;;;;;;;;5024829;28;20043;-81
2023/05/06 05:05:15;;;;;;;61.72;20.27;;;;;;;;;;5007668;28;20441;-81
2023/05/06 05:07:41;;;;;;;47.00;19.02;;;;;;;;;;5057775;28;20090;-81
2023/05/06 05:10:08;;;;;;;45.13;20.35;;;;;;;;;;5040156;28;20343;-82
2023/05/06 05:12:33;;;;;;;45.17;19.10;;;;;;;;;;5038570;28;20032;-81
2023/05/06 05:14:58;;;;;;;44.65;18.38;;;;;;;;;;5022705;28;20072;-82
2023/05/06 05:17:24;;;;;;;44.83;19.13;;;;;;;;;;5023214;28;20036;-81
2023/05/06 05:19:49;;;;;;;43.40;19.35;;;;;;;;;;5023159;28;20029;-82
2023/05/06 05:22:15;;;;;;;53.33;22.00;;;;;;;;;;5023330;28;20025;-81
2023/05/06 05:24:40;;;;;;;48.00;22.50;;;;;;;;;;5039657;28;20037;-82
2023/05/06 05:27:06;;;;;;;55.55;21.75;;;;;;;;;;5056930;28;20457;-81
2023/05/06 05:29:31;;;;;;;56.40;22.05;;;;;;;;;;5039553;28;20434;-82
2023/05/06 05:31:57;;;;;;;47.70;21.05;;;;;;;;;;5039687;28;20029;-82
2023/05/06 05:34:22;;;;;;;58.95;24.55;;;;;;;;;;5022844;28;20036;-83
2023/05/06 05:36:47;;;;;;;48.78;21.77;;;;;;;;;;5023013;28;20056;-82
2023/05/06 05:39:13;;;;;;;34.55;17.70;;;;;;;;;;5022641;28;20447;-83
2023/05/06 05:41:38;;;;;;;35.88;17.42;;;;;;;;;;5056717;28;20130;-81
2023/05/06 05:44:04;;;;;;;37.22;18.23;;;;;;;;;;5039269;28;20037;-81
2023/05/06 05:46:29;;;;;;;34.72;18.55;;;;;;;;;;5057139;28;20028;-82
2023/05/06 05:48:54;;;;;;;36.63;19.15;;;;;;;;;;5022612;28;20036;-82
2023/05/06 05:51:20;;;;;;;33.15;17.80;;;;;;;;;;5039050;28;20078;-82
2023/05/06 05:53:46;;;;;;;34.58;18.17;;;;;;;;;;5022770;28;20415;-83
2023/05/06 05:56:11;;;;;;;31.17;17.02;;;;;;;;;;5006171;28;20043;-82
2023/05/06 05:58:37;;;;;;;30.42;17.15;;;;;;;;;;5022718;28;20128;-83
2023/05/06 06:01:03;;;;;;;31.23;16.88;;;;;;;;;;5022536;28;20389;-82
2023/05/06 06:03:28;;;;;;;30.67;17.27;;;;;;;;;;5056662;28;20053;-82
2023/05/06 06:05:54;;;;;;;30.10;17.83;;;;;;;;;;5038692;28;20025;-83
2023/05/06 06:08:19;;;;;;;28.98;16.90;;;;;;;;;;5022418;28;20429;-83
2023/05/06 06:10:46;;;;;;;36.80;21.33;;;;;;;;;;5021255;28;20068;-82
2023/05/06 06:13:11;;;;;;;35.38;21.30;;;;;;;;;;5022161;28;20036;-83
2023/05/06 06:15:37;;;;;;;30.48;18.52;;;;;;;;;;5036360;28;20021;-83
2023/05/06 06:18:11;;;;;;;35.05;20.10;;;;;;;;;;5038320;28;20020;-82
2023/05/06 06:20:37;;;;;;;36.67;21.13;;;;;;;;;;5038310;28;20033;-82
2023/05/06 06:23:02;;;;;;;35.65;21.95;;;;;;;;;;5038711;28;20044;-83
2023/05/06 06:25:28;;;;;;;38.38;19.90;;;;;;;;;;5037951;28;20037;-83
2023/05/06 06:27:53;;;;;;;31.73;19.38;;;;;;;;;;5038592;28;20029;-83
2023/05/06 06:30:19;;;;;;;31.65;19.83;;;;;;;;;;5038303;28;20049;-82
2023/05/06 06:32:48;;;;;;;31.88;19.10;;;;;;;;;;5021871;28;20039;-83
2023/05/06 06:35:14;;;;;;;36.33;19.80;;;;;;;;;;5021739;28;20025;-83
2023/05/06 06:37:39;;;;;;;28.98;19.08;;;;;;;;;;5021648;28;20043;-84
2023/05/06 06:40:05;;;;;;;29.70;18.70;;;;;;;;;;5037586;28;20033;-84
2023/05/06 06:42:31;;;;;;;27.95;18.67;;;;;;;;;;5005704;28;20038;-84
2023/05/06 06:44:56;;;;;;;24.15;16.92;;;;;;;;;;5055823;28;20308;-84
2023/05/06 06:47:22;;;;;;;31.23;18.23;;;;;;;;;;5038085;28;20025;-84
2023/05/06 06:49:47;;;;;;;29.77;19.00;;;;;;;;;;5021413;28;20079;-84
2023/05/06 06:52:12;;;;;;;25.55;17.77;;;;;;;;;;5037769;28;20036;-83
2023/05/06 06:54:38;;;;;;;28.75;17.27;;;;;;;;;;5037765;28;20065;-83
2023/05/06 06:57:05;;;;;;;28.60;18.67;;;;;;;;;;5055436;28;20083;-83
2023/05/06 06:59:30;;;;;;;23.42;17.75;;;;;;;;;;5037391;28;20033;-84
2023/05/06 07:01:55;;;;;;;28.55;18.00;;;;;;;;;;5037623;28;20029;-83
2023/05/06 07:04:21;;;;;;;25.45;17.25;;;;;;;;;;5054197;28;20524;-84
2023/05/06 07:06:49;;;;;;;26.33;16.38;;;;;;;;;;5037565;28;20025;-84
2023/05/06 07:09:15;;;;;;;24.23;17.75;;;;;;;;;;5004757;28;20173;-79
2023/05/06 07:11:40;;;;;;;25.13;16.73;;;;;;;;;;5037457;28;20230;-79
2023/05/06 07:14:06;;;;;;;24.98;17.35;;;;;;;;;;5037426;28;20037;-79
2023/05/06 07:16:31;;;;;;;24.92;17.08;;;;;;;;;;5052848;28;20094;-79
2023/05/06 07:18:57;;;;;;;28.40;17.67;;;;;;;;;;5055219;28;20020;-78
2023/05/06 07:21:22;;;;;;;21.50;15.70;;;;;;;;;;5052773;28;20044;-79
2023/05/06 07:23:48;;;;;;;24.08;16.52;;;;;;;;;;5053344;28;20020;-79
2023/05/06 07:26:13;;;;;;;22.92;16.08;;;;;;;;;;5037294;28;20025;-80
2023/05/06 07:28:38;;;;;;;23.25;16.38;;;;;;;;;;5037142;28;20025;-80
2023/05/06 07:31:04;;;;;;;21.30;16.67;;;;;;;;;;5053732;28;20091;-80
2023/05/06 07:33:29;;;;;;;20.85;15.98;;;;;;;;;;5036353;28;20366;-79
2023/05/06 07:35:55;;;;;;;23.15;16.40;;;;;;;;;;5027724;28;20028;-78
2023/05/06 07:38:23;;;;;;;25.20;16.15;;;;;;;;;;5074167;28;20059;-79
2023/05/06 07:40:50;;;;;;;19.92;15.32;;;;;;;;;;5055762;28;20027;-78
2023/05/06 07:43:15;;;;;;;20.20;14.35;;;;;;;;;;5055234;28;20428;-78
2023/05/06 07:45:41;;;;;;;20.42;14.25;;;;;;;;;;5055252;28;20025;-79
2023/05/06 07:48:06;;;;;;;15.18;12.55;;;;;;;;;;5055729;28;20017;-79
2023/05/06 07:50:32;;;;;;;20.38;13.15;;;;;;;;;;5073547;28;20445;-78
2023/05/06 07:52:58;;;;;;;17.05;12.15;;;;;;;;;;5055098;28;20437;-79
2023/05/06 07:55:24;;;;;;;16.45;11.32;;;;;;;;;;5071530;28;20115;-79
2023/05/06 07:57:50;;;;;;;15.90;11.30;;;;;;;;;;5054615;28;20124;-78
2023/05/06 08:00:16;;;;;;;18.85;14.00;;;;;;;;;;5050836;28;20112;-78
2023/05/06 08:02:45;;;;;;;17.42;13.38;;;;;;;;;;5034748;28;20120;-79
2023/05/06 08:05:11;;;;;;;17.50;12.73;;;;;;;;;;5017941;28;20658;-79
2023/05/06 08:07:36;;;;;;;18.60;12.60;;;;;;;;;;5016582;28;20025;-79
2023/05/06 08:10:02;;;;;;;15.05;12.23;;;;;;;;;;5017288;28;20036;-79
2023/05/06 08:12:28;;;;;;;14.63;11.18;;;;;;;;;;5033150;28;20413;-78
2023/05/06 08:14:54;;;;;;;14.95;11.88;;;;;;;;;;5034037;28;20021;-78
2023/05/06 08:17:19;;;;;;;16.88;12.20;;;;;;;;;;5035469;28;20032;-78
2023/05/06 08:19:45;;;;;;;17.40;11.63;;;;;;;;;;5034127;28;20032;-78
2023/05/06 08:22:10;;;;;;;15.82;10.55;;;;;;;;;;5014832;28;20026;-78
2023/05/06 08:24:36;;;;;;;13.02;9.90;;;;;;;;;;5052733;28;20123;-78
2023/05/06 08:27:02;;;;;;;13.80;10.38;;;;;;;;;;5047471;28;20040;-78
2023/05/06 08:29:27;;;;;;;15.93;10.93;;;;;;;;;;5028939;28;20036;-78
2023/05/06 08:31:53;;;;;;;15.07;11.02;;;;;;;;;;5060165;28;20111;-78
2023/05/06 08:34:20;;;;;;;15.73;11.30;;;;;;;;;;5043172;28;20339;-76
2023/05/06 08:36:46;;;;;;;14.27;10.43;;;;;;;;;;5051974;28;20114;-78
2023/05/06 08:39:13;;;;;;;14.38;10.05;;;;;;;;;;5055331;28;20218;-78
2023/05/06 08:41:38;;;;;;;16.42;10.43;;;;;;;;;;5056153;28;20117;-79
2023/05/06 08:44:04;;;;;;;11.38;9.15;;;;;;;;;;5055657;28;20024;-79
2023/05/06 08:46:30;;;;;;;11.27;9.20;;;;;;;;;;5072735;28;20086;-78
2023/05/06 08:48:56;;;;;;;11.93;8.60;;;;;;;;;;5055662;28;20029;-79
2023/05/06 08:51:23;;;;;;;10.93;7.85;;;;;;;;;;5055465;28;20024;-79
2023/05/06 08:53:49;;;;;;;12.00;7.60;;;;;;;;;;5039006;28;20036;-79
2023/05/06 08:56:15;;;;;;;12.77;7.82;;;;;;;;;;5038290;28;20028;-79
2023/05/06 08:58:43;;;;;;;10.52;8.85;;;;;;;;;;5054082;28;20088;-78
2023/05/06 09:01:08;;;;;;;10.88;7.82;;;;;;;;;;5054312;28;20028;-78
2023/05/06 09:03:34;;;;;;;10.90;8.48;;;;;;;;;;5020528;28;20481;-79
2023/05/06 09:05:59;;;;;;;12.38;8.10;;;;;;;;;;5053942;28;20045;-79
2023/05/06 09:08:25;;;;;;;11.38;7.13;;;;;;;;;;5071798;28;20519;-78
2023/05/06 09:10:50;;;;;;;9.48;6.70;;;;;;;;;;5037540;28;20115;-79
2023/05/06 09:13:17;;;;;;;8.52;6.60;;;;;;;;;;5055469;28;20037;-79
2023/05/06 09:15:46;;;;;;;9.57;7.10;;;;;;;;;;5039015;28;20043;-78
2023/05/06 09:18:12;;;;;;;10.05;7.43;;;;;;;;;;5022668;28;20036;-78
2023/05/06 09:20:41;;;;;;;11.10;7.20;;;;;;;;;;5022065;28;20090;-79
2023/05/06 09:23:12;;;;;;;10.45;7.20;;;;;;;;;;5026370;28;20040;-79
2023/05/06 09:25:38;;;;;;;9.77;6.60;;;;;;;;;;5019341;28;20029;-79
2023/05/06 09:28:08;;;;;;;11.50;7.28;;;;;;;;;;5055779;28;20037;-78
2023/05/06 09:30:40;;;;;;;12.32;7.07;;;;;;;;;;5058142;28;20028;-78
2023/05/06 09:33:06;;;;;;;7.45;5.82;;;;;;;;;;5033789;28;20431;-77
2023/05/06 09:35:41;;;;;;;12.05;6.40;;;;;;;;;;5033408;28;20087;-77
2023/05/06 09:38:07;;;;;;;7.85;5.72;;;;;;;;;;5033582;28;20107;-78
2023/05/06 09:40:34;;;;;;;10.55;6.10;;;;;;;;;;5035237;28;20417;-79
2023/05/06 09:42:59;;;;;;;7.80;5.53;;;;;;;;;;5053060;28;20025;-78
2023/05/06 09:45:25;;;;;;;9.43;5.97;;;;;;;;;;5019351;28;20378;-79
2023/05/06 09:47:52;;;;;;;13.43;6.57;;;;;;;;;;5037122;28;20048;-78
2023/05/06 09:50:21;;;;;;;8.57;6.30;;;;;;;;;;5037720;28;20033;-78
2023/05/06 09:52:47;;;;;;;7.10;5.72;;;;;;;;;;5037191;28;20033;-78
2023/05/06 09:55:13;;;;;;;10.40;6.13;;;;;;;;;;5053700;28;20032;-78
2023/05/06 09:57:39;;;;;;;7.95;5.90;;;;;;;;;;5035571;28;20358;-79
2023/05/06 10:00:10;;;;;;;7.00;5.88;;;;;;;;;;5035641;28;20025;-78
2023/05/06 10:02:36;;;;;;;8.95;5.75;;;;;;;;;;5053904;28;20045;-78
2023/05/06 10:05:04;;;;;;;7.90;5.60;;;;;;;;;;5020488;28;20021;-79
2023/05/06 10:07:30;;;;;;;8.40;5.60;;;;;;;;;;5054721;28;20486;-78
2023/05/06 10:09:56;;;;;;;8.30;5.55;;;;;;;;;;5021951;28;20116;-78
2023/05/06 10:12:21;;;;;;;9.48;5.53;;;;;;;;;;5022188;28;20035;-79
2023/05/06 10:14:47;;;;;;;9.15;5.40;;;;;;;;;;5057032;28;20025;-77
2023/05/06 10:17:12;;;;;;;13.52;6.13;;;;;;;;;;5055451;28;20021;-77
2023/05/06 10:19:45;;;;;;;11.02;6.55;;;;;;;;;;5020318;28;20127;-78
2023/05/06 10:22:48;;;;;;;10.90;6.85;;;;;;;;;;5035839;28;20110;-78
2023/05/06 10:25:29;;;;;;;9.98;6.13;;;;;;;;;;5054225;28;20036;-78
2023/05/06 10:27:54;;;;;;;15.27;6.00;;;;;;;;;;5036641;28;20036;-78
2023/05/06 10:30:20;;;;;;;8.63;5.65;;;;;;;;;;5036598;28;20091;-78
2023/05/06 10:32:45;;;;;;;8.85;5.72;;;;;;;;;;5036384;28;20029;-78
2023/05/06 10:35:19;;;;;;;9.93;5.30;;;;;;;;;;5055868;28;20033;-78
2023/05/06 10:37:46;;;;;;;10.38;6.13;;;;;;;;;;5037947;28;20071;-78
2023/05/06 10:40:11;;;;;;;11.73;5.57;;;;;;;;;;5037970;28;20124;-78
2023/05/06 10:42:37;;;;;;;9.15;6.03;;;;;;;;;;5037951;28;20120;-78
2023/05/06 10:45:04;;;;;;;12.02;6.03;;;;;;;;;;5055651;28;20044;-79
2023/05/06 10:47:56;;;;;;;7.97;5.72;;;;;;;;;;5054345;28;20052;-78
2023/05/06 10:50:25;;;;;;;9.25;6.13;;;;;;;;;;5032300;28;20069;-78
2023/05/06 10:52:55;;;;;;;8.40;5.55;;;;;;;;;;5055608;28;20035;-79
2023/05/06 10:55:30;;;;;;;9.50;5.07;;;;;;;;;;5054325;28;20045;-78
2023/05/06 10:58:03;;;;;;;9.68;5.35;;;;;;;;;;5055010;28;20063;-78
2023/05/06 11:00:32;;;;;;;6.90;5.30;;;;;;;;;;5055497;28;20032;-78
2023/05/06 11:03:09;;;;;;;7.88;4.68;;;;;;;;;;5037330;28;20041;-78
2023/05/06 11:05:55;;;;;;;7.88;5.10;;;;;;;;;;5038652;28;20036;-78
2023/05/06 11:08:21;;;;;;;11.27;5.30;;;;;;;;;;5054869;28;20041;-78
2023/05/06 11:10:47;;;;;;;10.38;5.10;;;;;;;;;;5037569;28;20087;-78
2023/05/06 11:13:22;;;;;;;10.05;5.05;;;;;;;;;;5055151;28;20036;-77
2023/05/06 11:15:50;;;;;;;9.30;4.95;;;;;;;;;;5054637;28;20032;-78
2023/05/06 11:18:33;;;;;;;9.45;5.40;;;;;;;;;;5021667;28;20079;-79
2023/05/06 11:20:58;;;;;;;9.18;4.57;;;;;;;;;;5055157;28;20029;-77
2023/05/06 11:23:45;;;;;;;8.35;5.15;;;;;;;;;;5055025;28;20021;-78
2023/05/06 11:26:11;;;;;;;9.77;5.15;;;;;;;;;;5054942;28;20025;-78
2023/05/06 11:28:37;;;;;;;7.35;4.97;;;;;;;;;;5036902;28;20457;-75
2023/05/06 11:31:03;;;;;;;11.35;4.85;;;;;;;;;;5037215;28;20057;-76
2023/05/06 11:33:33;;;;;;;7.90;5.03;;;;;;;;;;5036799;28;20056;-78
2023/05/06 11:35:59;;;;;;;9.07;5.07;;;;;;;;;;5054855;28;20482;-78
2023/05/06 11:38:57;;;;;;;8.27;4.88;;;;;;;;;;5036953;28;20021;-77
2023/05/06 11:41:23;;;;;;;9.82;4.60;;;;;;;;;;5054816;28;20035;-78
2023/05/06 11:43:49;;;;;;;5.35;4.05;;;;;;;;;;5053525;28;20041;-77
2023/05/06 11:46:16;;;;;;;8.50;4.78;;;;;;;;;;5055325;28;20052;-78
2023/05/06 11:48:42;;;;;;;10.48;4.97;;;;;;;;;;5020535;28;20155;-77
2023/05/06 11:51:07;;;;;;;6.55;4.18;;;;;;;;;;5036789;28;20374;-78
2023/05/06 11:53:33;;;;;;;6.60;3.83;;;;;;;;;;5036592;28;20515;-78
2023/05/06 11:55:58;;;;;;;6.25;4.22;;;;;;;;;;5036928;28;20025;-77
2023/05/06 11:58:25;;;;;;;6.40;4.00;;;;;;;;;;5054178;28;20029;-79
2023/05/06 12:01:01;;;;;;;7.07;4.47;;;;;;;;;;5053360;28;20094;-78
2023/05/06 12:03:28;;;;;;;13.93;4.13;;;;;;;;;;5036277;28;20059;-77
2023/05/06 12:05:53;;;;;;;6.60;3.67;;;;;;;;;;5036672;28;20033;-79
2023/05/06 12:08:22;;;;;;;6.60;3.92;;;;;;;;;;5020097;28;20135;-78
2023/05/06 12:10:51;;;;;;;4.88;3.72;;;;;;;;;;5036092;28;20033;-78
2023/05/06 12:13:17;;;;;;;4.97;3.88;;;;;;;;;;5019697;28;20029;-78
2023/05/06 12:15:43;;;;;;;8.00;4.43;;;;;;;;;;5036634;28;20032;-78
2023/05/06 12:18:08;;;;;;;8.35;4.18;;;;;;;;;;5037043;28;20413;-77
2023/05/06 12:20:34;;;;;;;7.07;4.80;;;;;;;;;;5036836;28;20043;-78
2023/05/06 12:23:06;;;;;;;12.77;4.57;;;;;;;;;;5036442;28;20124;-77
2023/05/06 12:25:31;;;;;;;8.70;4.05;;;;;;;;;;5053992;28;20039;-78
2023/05/06 12:27:57;;;;;;;5.47;4.13;;;;;;;;;;5036127;28;20131;-76
2023/05/06 12:30:33;;;;;;;5.32;4.07;;;;;;;;;;5036023;28;20123;-77
2023/05/06 12:32:58;;;;;;;6.07;4.20;;;;;;;;;;5019805;28;20029;-78
2023/05/06 12:35:27;;;;;;;10.48;4.30;;;;;;;;;;5036132;28;20090;-78
2023/05/06 12:37:53;;;;;;;6.53;3.53;;;;;;;;;;5053918;28;20093;-77
2023/05/06 12:40:18;;;;;;;7.68;3.88;;;;;;;;;;5053786;28;20037;-77
2023/05/06 12:42:44;;;;;;;6.85;3.67;;;;;;;;;;5019219;28;20132;-77
2023/05/06 12:45:13;;;;;;;7.18;3.95;;;;;;;;;;5035918;28;20021;-77
2023/05/06 12:47:38;;;;;;;7.53;3.80;;;;;;;;;;5036070;28;20025;-78
2023/05/06 12:50:04;;;;;;;7.95;3.85;;;;;;;;;;5053659;28;20017;-79
2023/05/06 12:52:29;;;;;;;8.77;3.65;;;;;;;;;;5035738;28;20021;-77
2023/05/06 12:54:56;;;;;;;4.90;3.55;;;;;;;;;;5019377;28;20078;-77
2023/05/06 12:57:21;;;;;;;8.00;3.70;;;;;;;;;;5035594;28;20374;-78
2023/05/06 12:59:47;;;;;;;5.38;3.38;;;;;;;;;;5035708;28;20029;-78
2023/05/06 13:02:12;;;;;;;4.85;3.08;;;;;;;;;;5019162;28;20048;-77
2023/05/06 13:04:38;;;;;;;7.32;3.75;;;;;;;;;;5035778;28;20036;-77
2023/05/06 13:07:03;;;;;;;4.72;3.60;;;;;;;;;;5019433;28;20029;-78
2023/05/06 13:09:29;;;;;;;5.53;3.17;;;;;;;;;;5053434;28;20061;-78
2023/05/06 13:11:55;;;;;;;5.13;3.20;;;;;;;;;;5035371;28;20120;-76
2023/05/06 13:14:21;;;;;;;5.68;3.97;;;;;;;;;;5035511;28;20086;-78
2023/05/06 13:16:47;;;;;;;5.55;3.45;;;;;;;;;;5019394;28;20025;-77
2023/05/06 13:19:12;;;;;;;7.15;3.33;;;;;;;;;;5035564;28;20025;-78
2023/05/06 13:21:38;;;;;;;5.80;3.50;;;;;;;;;;5055959;28;20032;-78
2023/05/06 13:24:04;;;;;;;3.80;3.17;;;;;;;;;;5039623;28;20029;-78
2023/05/06 13:26:30;;;;;;;7.65;3.35;;;;;;;;;;5023237;28;20029;-78
2023/05/06 13:28:56;;;;;;;5.57;3.30;;;;;;;;;;5039807;28;20021;-78
2023/05/06 13:31:22;;;;;;;4.47;3.25;;;;;;;;;;5022874;28;20048;-79
2023/05/06 13:33:47;;;;;;;4.35;3.45;;;;;;;;;;5056983;28;20044;-78
2023/05/06 13:36:12;;;;;;;4.97;3.38;;;;;;;;;;5057183;28;20047;-78
2023/05/06 13:38:38;;;;;;;10.10;3.40;;;;;;;;;;5057042;28;20025;-78
2023/05/06 13:41:07;;;;;;;3.90;3.10;;;;;;;;;;5039140;28;20382;-78
2023/05/06 13:43:34;;;;;;;4.43;3.20;;;;;;;;;;5056951;28;20025;-78
2023/05/06 13:46:00;;;;;;;7.93;3.00;;;;;;;;;;5039226;28;20362;-78
2023/05/06 13:48:25;;;;;;;3.67;2.90;;;;;;;;;;5056881;28;20037;-78
2023/05/06 13:50:51;;;;;;;4.93;2.85;;;;;;;;;;5056901;28;20115;-79
2023/05/06 13:53:16;;;;;;;3.35;2.78;;;;;;;;;;5039268;28;20139;-79
2023/05/06 13:55:41;;;;;;;5.22;3.28;;;;;;;;;;5056396;28;20028;-79
2023/05/06 13:58:07;;;;;;;5.60;3.05;;;;;;;;;;5038979;28;20427;-78
2023/05/06 14:00:33;;;;;;;7.70;3.30;;;;;;;;;;5039097;28;20082;-78
2023/05/06 14:02:58;;;;;;;7.00;3.22;;;;;;;;;;5038778;28;20037;-78
2023/05/06 14:05:24;;;;;;;4.95;3.08;;;;;;;;;;5056670;28;20102;-79
2023/05/06 14:07:49;;;;;;;6.43;3.25;;;;;;;;;;5038758;28;20032;-78
2023/05/06 14:10:33;;;;;;;4.68;3.25;;;;;;;;;;5038399;28;20484;-78
2023/05/06 14:12:59;;;;;;;5.88;3.65;;;;;;;;;;5056333;28;20037;-79
2023/05/06 14:15:24;;;;;;;8.27;3.20;;;;;;;;;;5038884;28;20032;-78
2023/05/06 14:17:50;;;;;;;8.85;3.50;;;;;;;;;;5056371;28;20048;-78
2023/05/06 14:20:15;;;;;;;6.68;3.47;;;;;;;;;;5055811;28;20105;-79
2023/05/06 14:22:41;;;;;;;7.50;3.25;;;;;;;;;;5055297;28;20359;-76
2023/05/06 14:25:07;;;;;;;3.88;3.13;;;;;;;;;;5038233;28;20036;-77